Terminal Aerodrome Forecast
Issued by NWS

Home | Current Version | Previous Version | Text Only | Print | Product List | Glossary On
Versions: 1 2 3 4 5 6 7 8 9 10 11 12 13 14 15 16 17 18 19
102
FTUS43 KTOP 241736
TAFFOE
TAF
KFOE 241736Z 2418/2518 18017G25KT P6SM VCTS BKN040CB
     FM242100 15014G22KT P6SM VCTS BKN035CB
     FM242300 17013G28KT P6SM -TSRA BKN030CB
      TEMPO 2423/2503 5SM TSRA OVC015CB
     FM250300 35010G18KT P6SM -TSRA OVC012CB
     FM250800 34014G20KT P6SM -SHRA VCTS OVC007CB=

USA.gov is the U.S. government's official web portal to all federal, state and local government web resources and services.